sensor_id;sensor_type;location;lat;lon;timestamp;pressure;altitude;pressure_sealevel;temperature
10869;BMP180;62667;48.698;8.762;2023-04-24T00:00:05;94971.00;;;10.10
10869;BMP180;62667;48.698;8.762;2023-04-24T00:02:47;94969.00;;;10.30
10869;BMP180;62667;48.698;8.762;2023-04-24T00:05:16;94981.00;;;10.30
10869;BMP180;62667;48.698;8.762;2023-04-24T00:07:44;94985.00;;;10.20
10869;BMP180;62667;48.698;8.762;2023-04-24T00:10:13;94998.00;;;10.30
10869;BMP180;62667;48.698;8.762;2023-04-24T00:12:40;95000.00;;;10.40
10869;BMP180;62667;48.698;8.762;2023-04-24T00:15:09;95000.00;;;10.40
10869;BMP180;62667;48.698;8.762;2023-04-24T00:17:37;94990.00;;;10.30
10869;BMP180;62667;48.698;8.762;2023-04-24T00:20:05;94990.00;;;10.30
10869;BMP180;62667;48.698;8.762;2023-04-24T00:22:33;94991.00;;;10.20
10869;BMP180;62667;48.698;8.762;2023-04-24T00:25:00;94991.00;;;10.10
10869;BMP180;62667;48.698;8.762;2023-04-24T00:27:29;94990.00;;;10.10
10869;BMP180;62667;48.698;8.762;2023-04-24T00:29:57;94978.00;;;10.30
10869;BMP180;62667;48.698;8.762;2023-04-24T00:32:24;94981.00;;;10.40
10869;BMP180;62667;48.698;8.762;2023-04-24T00:34:52;94978.00;;;10.30
10869;BMP180;62667;48.698;8.762;2023-04-24T00:37:19;94984.00;;;10.40
10869;BMP180;62667;48.698;8.762;2023-04-24T00:39:46;94981.00;;;10.30
10869;BMP180;62667;48.698;8.762;2023-04-24T00:42:14;94978.00;;;10.30
10869;BMP180;62667;48.698;8.762;2023-04-24T00:44:43;94972.00;;;10.30
10869;BMP180;62667;48.698;8.762;2023-04-24T00:47:11;94965.00;;;10.40
10869;BMP180;62667;48.698;8.762;2023-04-24T00:49:39;94973.00;;;10.30
10869;BMP180;62667;48.698;8.762;2023-04-24T00:52:07;94964.00;;;10.20
10869;BMP180;62667;48.698;8.762;2023-04-24T00:54:35;94960.00;;;10.20
10869;BMP180;62667;48.698;8.762;2023-04-24T00:57:03;94966.00;;;10.30
10869;BMP180;62667;48.698;8.762;2023-04-24T00:59:31;94977.00;;;10.20
10869;BMP180;62667;48.698;8.762;2023-04-24T01:02:00;94978.00;;;10.20
10869;BMP180;62667;48.698;8.762;2023-04-24T01:04:27;94970.00;;;10.20
10869;BMP180;62667;48.698;8.762;2023-04-24T01:06:55;94976.00;;;10.10
10869;BMP180;62667;48.698;8.762;2023-04-24T01:09:24;94963.00;;;10.00
10869;BMP180;62667;48.698;8.762;2023-04-24T01:11:52;94953.00;;;10.10
10869;BMP180;62667;48.698;8.762;2023-04-24T01:14:20;94960.00;;;9.90
10869;BMP180;62667;48.698;8.762;2023-04-24T01:16:48;94956.00;;;10.00
10869;BMP180;62667;48.698;8.762;2023-04-24T01:19:18;94948.00;;;10.00
10869;BMP180;62667;48.698;8.762;2023-04-24T01:21:47;94950.00;;;10.00
10869;BMP180;62667;48.698;8.762;2023-04-24T01:24:19;94948.00;;;10.10
10869;BMP180;62667;48.698;8.762;2023-04-24T01:26:46;94956.00;;;10.20
10869;BMP180;62667;48.698;8.762;2023-04-24T01:29:14;94951.00;;;10.10
10869;BMP180;62667;48.698;8.762;2023-04-24T01:31:41;94936.00;;;10.10
10869;BMP180;62667;48.698;8.762;2023-04-24T01:34:09;94948.00;;;10.00
10869;BMP180;62667;48.698;8.762;2023-04-24T01:36:38;94941.00;;;9.90
10869;BMP180;62667;48.698;8.762;2023-04-24T01:39:06;94942.00;;;10.00
10869;BMP180;62667;48.698;8.762;2023-04-24T01:41:35;94951.00;;;10.00
10869;BMP180;62667;48.698;8.762;2023-04-24T01:44:02;94946.00;;;10.00
10869;BMP180;62667;48.698;8.762;2023-04-24T01:46:30;94935.00;;;9.90
10869;BMP180;62667;48.698;8.762;2023-04-24T01:49:00;94933.00;;;10.00
10869;BMP180;62667;48.698;8.762;2023-04-24T01:51:28;94936.00;;;9.80
10869;BMP180;62667;48.698;8.762;2023-04-24T01:53:56;94930.00;;;9.80
10869;BMP180;62667;48.698;8.762;2023-04-24T01:56:23;94927.00;;;9.70
10869;BMP180;62667;48.698;8.762;2023-04-24T01:58:53;94936.00;;;9.70
10869;BMP180;62667;48.698;8.762;2023-04-24T02:01:21;94928.00;;;9.70
10869;BMP180;62667;48.698;8.762;2023-04-24T02:03:48;94939.00;;;9.80
10869;BMP180;62667;48.698;8.762;2023-04-24T02:06:15;94930.00;;;9.80
10869;BMP180;62667;48.698;8.762;2023-04-24T02:08:43;94949.00;;;9.70
10869;BMP180;62667;48.698;8.762;2023-04-24T02:11:10;94949.00;;;9.80
10869;BMP180;62667;48.698;8.762;2023-04-24T02:13:38;94939.00;;;9.70
10869;BMP180;62667;48.698;8.762;2023-04-24T02:16:06;94936.00;;;9.60
10869;BMP180;62667;48.698;8.762;2023-04-24T02:18:34;94939.00;;;9.70
10869;BMP180;62667;48.698;8.762;2023-04-24T02:21:01;94939.00;;;9.80
10869;BMP180;62667;48.698;8.762;2023-04-24T02:23:29;94957.00;;;9.80
10869;BMP180;62667;48.698;8.762;2023-04-24T02:25:56;94946.00;;;9.80
10869;BMP180;62667;48.698;8.762;2023-04-24T02:28:23;94953.00;;;9.70
10869;BMP180;62667;48.698;8.762;2023-04-24T02:30:52;94941.00;;;9.50
10869;BMP180;62667;48.698;8.762;2023-04-24T02:33:20;94936.00;;;9.60
10869;BMP180;62667;48.698;8.762;2023-04-24T02:35:48;94938.00;;;9.80
10869;BMP180;62667;48.698;8.762;2023-04-24T02:38:15;94932.00;;;9.80
10869;BMP180;62667;48.698;8.762;2023-04-24T02:40:42;94947.00;;;9.60
10869;BMP180;62667;48.698;8.762;2023-04-24T02:43:10;94939.00;;;9.70
10869;BMP180;62667;48.698;8.762;2023-04-24T02:45:37;94936.00;;;9.60
10869;BMP180;62667;48.698;8.762;2023-04-24T02:48:05;94934.00;;;9.70
10869;BMP180;62667;48.698;8.762;2023-04-24T02:50:34;94933.00;;;9.50
10869;BMP180;62667;48.698;8.762;2023-04-24T02:53:01;94934.00;;;9.40
10869;BMP180;62667;48.698;8.762;2023-04-24T02:55:28;94936.00;;;9.60
10869;BMP180;62667;48.698;8.762;2023-04-24T02:57:56;94928.00;;;9.70
10869;BMP180;62667;48.698;8.762;2023-04-24T03:00:24;94928.00;;;9.60
10869;BMP180;62667;48.698;8.762;2023-04-24T03:02:51;94940.00;;;9.60
10869;BMP180;62667;48.698;8.762;2023-04-24T03:05:19;94935.00;;;9.30
10869;BMP180;62667;48.698;8.762;2023-04-24T03:07:48;94937.00;;;9.50
10869;BMP180;62667;48.698;8.762;2023-04-24T03:10:16;94932.00;;;9.30
10869;BMP180;62667;48.698;8.762;2023-04-24T03:12:43;94937.00;;;9.50
10869;BMP180;62667;48.698;8.762;2023-04-24T03:15:11;94935.00;;;9.50
10869;BMP180;62667;48.698;8.762;2023-04-24T03:17:38;94935.00;;;9.50
10869;BMP180;62667;48.698;8.762;2023-04-24T03:20:07;94934.00;;;9.60
10869;BMP180;62667;48.698;8.762;2023-04-24T03:22:35;94909.00;;;9.40
10869;BMP180;62667;48.698;8.762;2023-04-24T03:25:04;94909.00;;;9.70
10869;BMP180;62667;48.698;8.762;2023-04-24T03:27:32;94902.00;;;9.60
10869;BMP180;62667;48.698;8.762;2023-04-24T03:30:00;94908.00;;;9.50
10869;BMP180;62667;48.698;8.762;2023-04-24T03:32:28;94896.00;;;9.40
10869;BMP180;62667;48.698;8.762;2023-04-24T03:34:55;94909.00;;;9.40
10869;BMP180;62667;48.698;8.762;2023-04-24T03:37:23;94913.00;;;9.40
10869;BMP180;62667;48.698;8.762;2023-04-24T03:39:50;94911.00;;;9.20
10869;BMP180;62667;48.698;8.762;2023-04-24T03:42:19;94913.00;;;9.20
10869;BMP180;62667;48.698;8.762;2023-04-24T03:44:46;94912.00;;;9.20
10869;BMP180;62667;48.698;8.762;2023-04-24T03:47:14;94919.00;;;9.20
10869;BMP180;62667;48.698;8.762;2023-04-24T03:49:41;94920.00;;;9.30
10869;BMP180;62667;48.698;8.762;2023-04-24T03:52:09;94922.00;;;9.00
10869;BMP180;62667;48.698;8.762;2023-04-24T03:54:36;94939.00;;;9.20
10869;BMP180;62667;48.698;8.762;2023-04-24T03:57:04;94935.00;;;9.10
10869;BMP180;62667;48.698;8.762;2023-04-24T03:59:33;94963.00;;;9.30
10869;BMP180;62667;48.698;8.762;2023-04-24T04:02:00;94970.00;;;9.10
10869;BMP180;62667;48.698;8.762;2023-04-24T04:04:27;95000.00;;;8.90
10869;BMP180;62667;48.698;8.762;2023-04-24T04:06:55;94990.00;;;8.30
10869;BMP180;62667;48.698;8.762;2023-04-24T04:09:22;94992.00;;;8.30
10869;BMP180;62667;48.698;8.762;2023-04-24T04:11:50;94994.00;;;8.10
10869;BMP180;62667;48.698;8.762;2023-04-24T04:14:17;95005.00;;;8.10
10869;BMP180;62667;48.698;8.762;2023-04-24T04:16:46;94994.00;;;7.90
10869;BMP180;62667;48.698;8.762;2023-04-24T04:19:13;95004.00;;;7.90
10869;BMP180;62667;48.698;8.762;2023-04-24T04:21:40;94995.00;;;7.90
10869;BMP180;62667;48.698;8.762;2023-04-24T04:24:08;94993.00;;;7.70
10869;BMP180;62667;48.698;8.762;2023-04-24T04:26:35;95007.00;;;7.80
10869;BMP180;62667;48.698;8.762;2023-04-24T04:29:04;95009.00;;;7.70
10869;BMP180;62667;48.698;8.762;2023-04-24T04:31:32;95008.00;;;7.70
10869;BMP180;62667;48.698;8.762;2023-04-24T04:34:01;95004.00;;;7.70
10869;BMP180;62667;48.698;8.762;2023-04-24T04:36:28;95001.00;;;7.60
10869;BMP180;62667;48.698;8.762;2023-04-24T04:38:56;95008.00;;;7.70
10869;BMP180;62667;48.698;8.762;2023-04-24T04:41:25;95013.00;;;7.60
10869;BMP180;62667;48.698;8.762;2023-04-24T04:43:52;95007.00;;;7.60
10869;BMP180;62667;48.698;8.762;2023-04-24T04:46:20;95017.00;;;7.70
10869;BMP180;62667;48.698;8.762;2023-04-24T04:48:47;95009.00;;;7.70
10869;BMP180;62667;48.698;8.762;2023-04-24T04:51:16;95012.00;;;7.60
10869;BMP180;62667;48.698;8.762;2023-04-24T04:53:43;95012.00;;;7.70
10869;BMP180;62667;48.698;8.762;2023-04-24T04:56:11;95014.00;;;7.60
10869;BMP180;62667;48.698;8.762;2023-04-24T04:58:38;95023.00;;;7.60
10869;BMP180;62667;48.698;8.762;2023-04-24T05:01:06;95022.00;;;7.50
10869;BMP180;62667;48.698;8.762;2023-04-24T05:03:34;95044.00;;;7.70
10869;BMP180;62667;48.698;8.762;2023-04-24T05:06:02;95038.00;;;7.70
10869;BMP180;62667;48.698;8.762;2023-04-24T05:08:30;95043.00;;;7.80
10869;BMP180;62667;48.698;8.762;2023-04-24T05:10:58;95045.00;;;7.70
10869;BMP180;62667;48.698;8.762;2023-04-24T05:13:25;95054.00;;;7.80
10869;BMP180;62667;48.698;8.762;2023-04-24T05:15:53;95059.00;;;7.90
10869;BMP180;62667;48.698;8.762;2023-04-24T05:18:20;95060.00;;;7.90
10869;BMP180;62667;48.698;8.762;2023-04-24T05:20:48;95069.00;;;8.00
10869;BMP180;62667;48.698;8.762;2023-04-24T05:23:15;95062.00;;;8.00
10869;BMP180;62667;48.698;8.762;2023-04-24T05:25:44;95060.00;;;7.90
10869;BMP180;62667;48.698;8.762;2023-04-24T05:28:12;95055.00;;;8.10
10869;BMP180;62667;48.698;8.762;2023-04-24T05:30:39;95056.00;;;8.10
10869;BMP180;62667;48.698;8.762;2023-04-24T05:33:06;95063.00;;;8.20
10869;BMP180;62667;48.698;8.762;2023-04-24T05:35:34;95058.00;;;8.10
10869;BMP180;62667;48.698;8.762;2023-04-24T05:38:02;95064.00;;;8.00
10869;BMP180;62667;48.698;8.762;2023-04-24T05:40:29;95076.00;;;8.20
10869;BMP180;62667;48.698;8.762;2023-04-24T05:42:58;95075.00;;;8.10
10869;BMP180;62667;48.698;8.762;2023-04-24T05:45:25;95075.00;;;8.20
10869;BMP180;62667;48.698;8.762;2023-04-24T05:47:53;95067.00;;;8.10
10869;BMP180;62667;48.698;8.762;2023-04-24T05:50:21;95073.00;;;8.20
10869;BMP180;62667;48.698;8.762;2023-04-24T05:52:48;95074.00;;;8.70
10869;BMP180;62667;48.698;8.762;2023-04-24T05:55:16;95077.00;;;8.60
10869;BMP180;62667;48.698;8.762;2023-04-24T05:57:44;95085.00;;;8.80
10869;BMP180;62667;48.698;8.762;2023-04-24T06:00:14;95091.00;;;8.90
10869;BMP180;62667;48.698;8.762;2023-04-24T06:02:42;95084.00;;;8.80
10869;BMP180;62667;48.698;8.762;2023-04-24T06:05:09;95082.00;;;9.00
10869;BMP180;62667;48.698;8.762;2023-04-24T06:07:37;95086.00;;;9.30
10869;BMP180;62667;48.698;8.762;2023-04-24T06:10:05;95097.00;;;9.10
10869;BMP180;62667;48.698;8.762;2023-04-24T06:12:33;95091.00;;;9.10
10869;BMP180;62667;48.698;8.762;2023-04-24T06:15:00;95096.00;;;9.40
10869;BMP180;62667;48.698;8.762;2023-04-24T06:17:30;95095.00;;;9.40
10869;BMP180;62667;48.698;8.762;2023-04-24T06:19:57;95092.00;;;9.50
10869;BMP180;62667;48.698;8.762;2023-04-24T06:22:25;95092.00;;;9.10
10869;BMP180;62667;48.698;8.762;2023-04-24T06:24:52;95098.00;;;9.40
10869;BMP180;62667;48.698;8.762;2023-04-24T06:27:19;95084.00;;;9.40
10869;BMP180;62667;48.698;8.762;2023-04-24T06:29:47;95098.00;;;9.30
10869;BMP180;62667;48.698;8.762;2023-04-24T06:32:20;95084.00;;;9.40
10869;BMP180;62667;48.698;8.762;2023-04-24T06:34:50;95102.00;;;9.20
10869;BMP180;62667;48.698;8.762;2023-04-24T06:37:18;95114.00;;;9.20
10869;BMP180;62667;48.698;8.762;2023-04-24T06:39:45;95124.00;;;9.30
10869;BMP180;62667;48.698;8.762;2023-04-24T06:42:13;95112.00;;;9.10
10869;BMP180;62667;48.698;8.762;2023-04-24T06:44:41;95115.00;;;9.30
10869;BMP180;62667;48.698;8.762;2023-04-24T06:47:09;95116.00;;;9.20
10869;BMP180;62667;48.698;8.762;2023-04-24T06:49:37;95130.00;;;9.10
10869;BMP180;62667;48.698;8.762;2023-04-24T06:52:06;95130.00;;;9.10
10869;BMP180;62667;48.698;8.762;2023-04-24T06:54:34;95147.00;;;9.20
10869;BMP180;62667;48.698;8.762;2023-04-24T06:57:02;95141.00;;;9.10
10869;BMP180;62667;48.698;8.762;2023-04-24T06:59:30;95150.00;;;8.80
10869;BMP180;62667;48.698;8.762;2023-04-24T07:01:57;95130.00;;;8.90
10869;BMP180;62667;48.698;8.762;2023-04-24T07:04:25;95126.00;;;8.70
10869;BMP180;62667;48.698;8.762;2023-04-24T07:06:52;95150.00;;;8.90
10869;BMP180;62667;48.698;8.762;2023-04-24T07:09:24;95146.00;;;8.80
10869;BMP180;62667;48.698;8.762;2023-04-24T07:11:51;95155.00;;;8.70
10869;BMP180;62667;48.698;8.762;2023-04-24T07:14:19;95126.00;;;8.80
10869;BMP180;62667;48.698;8.762;2023-04-24T07:16:47;95128.00;;;8.70
10869;BMP180;62667;48.698;8.762;2023-04-24T07:19:14;95138.00;;;8.90
10869;BMP180;62667;48.698;8.762;2023-04-24T07:21:42;95125.00;;;9.00
10869;BMP180;62667;48.698;8.762;2023-04-24T07:24:12;95145.00;;;8.80
10869;BMP180;62667;48.698;8.762;2023-04-24T07:26:41;95166.00;;;8.70
10869;BMP180;62667;48.698;8.762;2023-04-24T07:29:08;95156.00;;;8.80
10869;BMP180;62667;48.698;8.762;2023-04-24T07:31:36;95152.00;;;8.80
10869;BMP180;62667;48.698;8.762;2023-04-24T07:34:04;95171.00;;;8.80
10869;BMP180;62667;48.698;8.762;2023-04-24T07:36:31;95166.00;;;8.90
10869;BMP180;62667;48.698;8.762;2023-04-24T07:38:58;95172.00;;;9.00
10869;BMP180;62667;48.698;8.762;2023-04-24T07:41:26;95181.00;;;9.20
10869;BMP180;62667;48.698;8.762;2023-04-24T07:43:55;95179.00;;;9.00
10869;BMP180;62667;48.698;8.762;2023-04-24T07:46:23;95175.00;;;9.00
10869;BMP180;62667;48.698;8.762;2023-04-24T07:48:50;95173.00;;;9.00
10869;BMP180;62667;48.698;8.762;2023-04-24T07:51:18;95219.00;;;9.00
10869;BMP180;62667;48.698;8.762;2023-04-24T07:53:46;95188.00;;;8.80
10869;BMP180;62667;48.698;8.762;2023-04-24T07:56:13;95174.00;;;8.90
10869;BMP180;62667;48.698;8.762;2023-04-24T07:58:40;95180.00;;;8.70
10869;BMP180;62667;48.698;8.762;2023-04-24T08:01:09;95186.00;;;8.90
10869;BMP180;62667;48.698;8.762;2023-04-24T08:03:37;95191.00;;;8.90
10869;BMP180;62667;48.698;8.762;2023-04-24T08:06:05;95190.00;;;8.90
10869;BMP180;62667;48.698;8.762;2023-04-24T08:08:32;95210.00;;;9.00
10869;BMP180;62667;48.698;8.762;2023-04-24T08:11:00;95194.00;;;8.80
10869;BMP180;62667;48.698;8.762;2023-04-24T08:13:27;95215.00;;;9.00
10869;BMP180;62667;48.698;8.762;2023-04-24T08:15:56;95203.00;;;9.30
10869;BMP180;62667;48.698;8.762;2023-04-24T08:18:24;95205.00;;;9.50
10869;BMP180;62667;48.698;8.762;2023-04-24T08:20:52;95184.00;;;9.40
10869;BMP180;62667;48.698;8.762;2023-04-24T08:23:19;95210.00;;;9.10
10869;BMP180;62667;48.698;8.762;2023-04-24T08:25:48;95218.00;;;8.80
10869;BMP180;62667;48.698;8.762;2023-04-24T08:28:15;95214.00;;;9.00
10869;BMP180;62667;48.698;8.762;2023-04-24T08:30:46;95217.00;;;8.70
10869;BMP180;62667;48.698;8.762;2023-04-24T08:33:14;95217.00;;;8.90
10869;BMP180;62667;48.698;8.762;2023-04-24T08:35:43;95232.00;;;8.90
10869;BMP180;62667;48.698;8.762;2023-04-24T08:38:10;95242.00;;;9.10
10869;BMP180;62667;48.698;8.762;2023-04-24T08:40:38;95232.00;;;8.80
10869;BMP180;62667;48.698;8.762;2023-04-24T08:43:06;95231.00;;;8.80
10869;BMP180;62667;48.698;8.762;2023-04-24T08:45:33;95242.00;;;9.10
10869;BMP180;62667;48.698;8.762;2023-04-24T08:48:01;95237.00;;;9.10
10869;BMP180;62667;48.698;8.762;2023-04-24T08:50:30;95259.00;;;9.30
10869;BMP180;62667;48.698;8.762;2023-04-24T08:53:01;95252.00;;;9.00
10869;BMP180;62667;48.698;8.762;2023-04-24T08:55:31;95282.00;;;9.30
10869;BMP180;62667;48.698;8.762;2023-04-24T08:57:59;95250.00;;;9.30
10869;BMP180;62667;48.698;8.762;2023-04-24T09:00:28;95318.00;;;9.20
10869;BMP180;62667;48.698;8.762;2023-04-24T09:02:56;95224.00;;;9.30
10869;BMP180;62667;48.698;8.762;2023-04-24T09:05:24;95302.00;;;9.40
10869;BMP180;62667;48.698;8.762;2023-04-24T09:07:54;95255.00;;;9.10
10869;BMP180;62667;48.698;8.762;2023-04-24T09:10:25;95264.00;;;8.90
10869;BMP180;62667;48.698;8.762;2023-04-24T09:12:52;95249.00;;;8.90
10869;BMP180;62667;48.698;8.762;2023-04-24T09:15:21;95287.00;;;9.00
10869;BMP180;62667;48.698;8.762;2023-04-24T09:17:48;95256.00;;;9.00
10869;BMP180;62667;48.698;8.762;2023-04-24T09:20:16;95270.00;;;9.20
10869;BMP180;62667;48.698;8.762;2023-04-24T09:22:45;95309.00;;;9.30
10869;BMP180;62667;48.698;8.762;2023-04-24T09:25:13;95307.00;;;9.30
10869;BMP180;62667;48.698;8.762;2023-04-24T09:27:46;95296.00;;;9.40
10869;BMP180;62667;48.698;8.762;2023-04-24T09:30:14;95284.00;;;8.90
10869;BMP180;62667;48.698;8.762;2023-04-24T09:32:47;95274.00;;;8.90
10869;BMP180;62667;48.698;8.762;2023-04-24T09:35:16;95289.00;;;8.70
10869;BMP180;62667;48.698;8.762;2023-04-24T09:37:45;95303.00;;;8.80
10869;BMP180;62667;48.698;8.762;2023-04-24T09:40:15;95281.00;;;8.90
10869;BMP180;62667;48.698;8.762;2023-04-24T09:42:51;95306.00;;;9.20
10869;BMP180;62667;48.698;8.762;2023-04-24T09:45:19;95305.00;;;9.30
10869;BMP180;62667;48.698;8.762;2023-04-24T09:47:52;95317.00;;;9.20
10869;BMP180;62667;48.698;8.762;2023-04-24T09:50:20;95292.00;;;9.30
10869;BMP180;62667;48.698;8.762;2023-04-24T09:52:57;95298.00;;;9.60
10869;BMP180;62667;48.698;8.762;2023-04-24T09:55:25;95293.00;;;9.60
10869;BMP180;62667;48.698;8.762;2023-04-24T09:57:59;95283.00;;;9.90
10869;BMP180;62667;48.698;8.762;2023-04-24T10:00:28;95287.00;;;10.10
10869;BMP180;62667;48.698;8.762;2023-04-24T10:03:00;95302.00;;;10.10
10869;BMP180;62667;48.698;8.762;2023-04-24T10:05:29;95298.00;;;10.00
10869;BMP180;62667;48.698;8.762;2023-04-24T10:08:03;95298.00;;;10.10
10869;BMP180;62667;48.698;8.762;2023-04-24T10:10:32;95298.00;;;10.40
10869;BMP180;62667;48.698;8.762;2023-04-24T10:13:01;95296.00;;;10.70
10869;BMP180;62667;48.698;8.762;2023-04-24T10:15:29;95326.00;;;10.80
10869;BMP180;62667;48.698;8.762;2023-04-24T10:17:58;95307.00;;;10.10
10869;BMP180;62667;48.698;8.762;2023-04-24T10:20:27;95315.00;;;10.20
10869;BMP180;62667;48.698;8.762;2023-04-24T10:22:57;95293.00;;;9.90
10869;BMP180;62667;48.698;8.762;2023-04-24T10:25:26;95342.00;;;10.50
10869;BMP180;62667;48.698;8.762;2023-04-24T10:27:54;95337.00;;;10.10
10869;BMP180;62667;48.698;8.762;2023-04-24T10:30:28;95326.00;;;9.70
10869;BMP180;62667;48.698;8.762;2023-04-24T10:32:56;95328.00;;;9.80
10869;BMP180;62667;48.698;8.762;2023-04-24T10:35:23;95322.00;;;10.10
10869;BMP180;62667;48.698;8.762;2023-04-24T10:37:57;95341.00;;;10.30
10869;BMP180;62667;48.698;8.762;2023-04-24T10:40:29;95367.00;;;10.00
10869;BMP180;62667;48.698;8.762;2023-04-24T10:42:57;95372.00;;;9.40
10869;BMP180;62667;48.698;8.762;2023-04-24T10:45:26;95360.00;;;9.50
10869;BMP180;62667;48.698;8.762;2023-04-24T10:48:03;95353.00;;;9.50
10869;BMP180;62667;48.698;8.762;2023-04-24T10:50:43;95357.00;;;9.70
10869;BMP180;62667;48.698;8.762;2023-04-24T10:53:14;95371.00;;;9.80
10869;BMP180;62667;48.698;8.762;2023-04-24T10:55:44;95346.00;;;9.90
10869;BMP180;62667;48.698;8.762;2023-04-24T10:58:12;95345.00;;;9.90
10869;BMP180;62667;48.698;8.762;2023-04-24T11:00:42;95358.00;;;9.90
10869;BMP180;62667;48.698;8.762;2023-04-24T11:03:25;95367.00;;;9.80
10869;BMP180;62667;48.698;8.762;2023-04-24T11:05:58;95369.00;;;9.60
10869;BMP180;62667;48.698;8.762;2023-04-24T11:08:30;95390.00;;;9.60
10869;BMP180;62667;48.698;8.762;2023-04-24T11:11:00;95370.00;;;9.20
10869;BMP180;62667;48.698;8.762;2023-04-24T11:16:19;95370.00;;;9.10
10869;BMP180;62667;48.698;8.762;2023-04-24T11:18:52;95369.00;;;9.30
10869;BMP180;62667;48.698;8.762;2023-04-24T11:21:21;95360.00;;;9.10
10869;BMP180;62667;48.698;8.762;2023-04-24T11:23:49;95337.00;;;9.70
10869;BMP180;62667;48.698;8.762;2023-04-24T11:26:21;95326.00;;;10.10
10869;BMP180;62667;48.698;8.762;2023-04-24T11:28:52;95365.00;;;10.20
10869;BMP180;62667;48.698;8.762;2023-04-24T11:31:38;95400.00;;;10.70
10869;BMP180;62667;48.698;8.762;2023-04-24T11:34:09;95385.00;;;10.20
10869;BMP180;62667;48.698;8.762;2023-04-24T11:36:38;95391.00;;;9.60
10869;BMP180;62667;48.698;8.762;2023-04-24T11:39:06;95389.00;;;9.80
10869;BMP180;62667;48.698;8.762;2023-04-24T11:41:34;95392.00;;;9.60
10869;BMP180;62667;48.698;8.762;2023-04-24T11:44:02;95403.00;;;9.50
10869;BMP180;62667;48.698;8.762;2023-04-24T11:46:31;95398.00;;;9.70
10869;BMP180;62667;48.698;8.762;2023-04-24T11:49:00;95405.00;;;9.70
10869;BMP180;62667;48.698;8.762;2023-04-24T11:51:28;95390.00;;;9.50
10869;BMP180;62667;48.698;8.762;2023-04-24T11:53:56;95384.00;;;9.80
10869;BMP180;62667;48.698;8.762;2023-04-24T11:56:24;95400.00;;;9.90
10869;BMP180;62667;48.698;8.762;2023-04-24T11:58:52;95393.00;;;10.20
10869;BMP180;62667;48.698;8.762;2023-04-24T12:01:21;95416.00;;;10.00
10869;BMP180;62667;48.698;8.762;2023-04-24T12:03:50;95403.00;;;9.90
10869;BMP180;62667;48.698;8.762;2023-04-24T12:06:19;95393.00;;;10.10
10869;BMP180;62667;48.698;8.762;2023-04-24T12:08:47;95392.00;;;10.50
10869;BMP180;62667;48.698;8.762;2023-04-24T12:11:16;95387.00;;;10.00
10869;BMP180;62667;48.698;8.762;2023-04-24T12:13:46;95389.00;;;10.40
10869;BMP180;62667;48.698;8.762;2023-04-24T12:16:14;95420.00;;;10.40
10869;BMP180;62667;48.698;8.762;2023-04-24T12:18:42;95414.00;;;9.50
10869;BMP180;62667;48.698;8.762;2023-04-24T12:21:20;95388.00;;;9.30
10869;BMP180;62667;48.698;8.762;2023-04-24T12:23:47;95387.00;;;9.90
10869;BMP180;62667;48.698;8.762;2023-04-24T12:26:19;95392.00;;;9.90
10869;BMP180;62667;48.698;8.762;2023-04-24T12:28:49;95397.00;;;9.40
10869;BMP180;62667;48.698;8.762;2023-04-24T12:31:16;95402.00;;;9.30
10869;BMP180;62667;48.698;8.762;2023-04-24T12:33:44;95398.00;;;9.10
10869;BMP180;62667;48.698;8.762;2023-04-24T12:36:12;95408.00;;;9.20
10869;BMP180;62667;48.698;8.762;2023-04-24T12:38:44;95399.00;;;9.70
10869;BMP180;62667;48.698;8.762;2023-04-24T12:41:13;95390.00;;;9.40
10869;BMP180;62667;48.698;8.762;2023-04-24T12:43:51;95387.00;;;9.40
10869;BMP180;62667;48.698;8.762;2023-04-24T12:46:19;95379.00;;;9.80
10869;BMP180;62667;48.698;8.762;2023-04-24T12:48:47;95388.00;;;9.60
10869;BMP180;62667;48.698;8.762;2023-04-24T12:51:14;95389.00;;;9.50
10869;BMP180;62667;48.698;8.762;2023-04-24T12:53:43;95388.00;;;9.60
10869;BMP180;62667;48.698;8.762;2023-04-24T12:56:10;95400.00;;;9.70
10869;BMP180;62667;48.698;8.762;2023-04-24T12:58:38;95403.00;;;9.30
10869;BMP180;62667;48.698;8.762;2023-04-24T13:01:05;95407.00;;;9.00
10869;BMP180;62667;48.698;8.762;2023-04-24T13:03:33;95414.00;;;8.80
10869;BMP180;62667;48.698;8.762;2023-04-24T13:06:00;95408.00;;;9.20
10869;BMP180;62667;48.698;8.762;2023-04-24T13:08:28;95423.00;;;9.00
10869;BMP180;62667;48.698;8.762;2023-04-24T13:10:56;95447.00;;;9.00
10869;BMP180;62667;48.698;8.762;2023-04-24T13:13:24;95438.00;;;8.80
10869;BMP180;62667;48.698;8.762;2023-04-24T13:15:51;95435.00;;;8.70
10869;BMP180;62667;48.698;8.762;2023-04-24T13:18:19;95445.00;;;8.40
10869;BMP180;62667;48.698;8.762;2023-04-24T13:20:46;95436.00;;;8.60
10869;BMP180;62667;48.698;8.762;2023-04-24T13:23:14;95440.00;;;9.00
10869;BMP180;62667;48.698;8.762;2023-04-24T13:25:42;95439.00;;;8.90
10869;BMP180;62667;48.698;8.762;2023-04-24T13:28:10;95433.00;;;8.70
10869;BMP180;62667;48.698;8.762;2023-04-24T13:30:38;95432.00;;;8.90
10869;BMP180;62667;48.698;8.762;2023-04-24T13:33:06;95434.00;;;8.80
10869;BMP180;62667;48.698;8.762;2023-04-24T13:35:33;95427.00;;;8.80
10869;BMP180;62667;48.698;8.762;2023-04-24T13:38:00;95431.00;;;8.90
10869;BMP180;62667;48.698;8.762;2023-04-24T13:40:32;95430.00;;;9.10
10869;BMP180;62667;48.698;8.762;2023-04-24T13:42:59;95427.00;;;9.00
10869;BMP180;62667;48.698;8.762;2023-04-24T13:45:28;95435.00;;;8.90
10869;BMP180;62667;48.698;8.762;2023-04-24T13:47:56;95446.00;;;8.60
10869;BMP180;62667;48.698;8.762;2023-04-24T13:50:24;95440.00;;;8.20
10869;BMP180;62667;48.698;8.762;2023-04-24T13:52:51;95436.00;;;8.50
10869;BMP180;62667;48.698;8.762;2023-04-24T13:55:19;95431.00;;;8.50
10869;BMP180;62667;48.698;8.762;2023-04-24T13:57:46;95400.00;;;9.10
10869;BMP180;62667;48.698;8.762;2023-04-24T14:00:14;95408.00;;;9.90
10869;BMP180;62667;48.698;8.762;2023-04-24T14:02:44;95392.00;;;10.10
10869;BMP180;62667;48.698;8.762;2023-04-24T14:05:12;95411.00;;;10.70
10869;BMP180;62667;48.698;8.762;2023-04-24T14:07:40;95418.00;;;11.00
10869;BMP180;62667;48.698;8.762;2023-04-24T14:10:08;95391.00;;;11.00
10869;BMP180;62667;48.698;8.762;2023-04-24T14:12:36;95399.00;;;11.50
10869;BMP180;62667;48.698;8.762;2023-04-24T14:15:04;95400.00;;;12.50
10869;BMP180;62667;48.698;8.762;2023-04-24T14:17:32;95403.00;;;13.20
10869;BMP180;62667;48.698;8.762;2023-04-24T14:20:00;95364.00;;;12.50
10869;BMP180;62667;48.698;8.762;2023-04-24T14:22:30;95369.00;;;12.10
10869;BMP180;62667;48.698;8.762;2023-04-24T14:24:57;95409.00;;;12.20
10869;BMP180;62667;48.698;8.762;2023-04-24T14:27:25;95397.00;;;11.60